createdAt,value
2019-03-19T00:00:15.231Z,7.50
2019-03-19T00:02:43.814Z,7.50
2019-03-19T00:05:12.706Z,7.40
2019-03-19T00:07:41.348Z,7.40
2019-03-19T00:10:10.461Z,7.40
2019-03-19T00:12:39.109Z,7.40
2019-03-19T00:15:10.165Z,7.50
2019-03-19T00:17:39.554Z,7.50
2019-03-19T00:20:15.292Z,7.40
2019-03-19T00:22:43.883Z,7.40
2019-03-19T00:25:12.614Z,7.30
2019-03-19T00:27:41.156Z,7.30
2019-03-19T00:30:21.179Z,7.30
2019-03-19T00:32:49.753Z,7.20
2019-03-19T00:35:18.355Z,7.20
2019-03-19T00:37:46.899Z,7.20
2019-03-19T00:40:16.224Z,7.10
2019-03-19T00:42:44.993Z,7.10
2019-03-19T00:45:14.309Z,7.20
2019-03-19T00:47:42.860Z,7.30
2019-03-19T00:50:13.287Z,7.30
2019-03-19T00:52:42.269Z,7.30
2019-03-19T00:55:11.861Z,7.20
2019-03-19T00:57:40.454Z,7.10
2019-03-19T01:00:16.787Z,7.10
2019-03-19T01:02:45.382Z,7.00
2019-03-19T01:05:14.468Z,6.90
2019-03-19T01:07:43.114Z,7.10
2019-03-19T01:10:17.357Z,7.10
2019-03-19T01:12:46.227Z,7.20
2019-03-19T01:15:15.528Z,7.20
2019-03-19T01:17:44.122Z,7.30
2019-03-19T01:20:16.760Z,7.30
2019-03-19T01:22:45.521Z,7.30
2019-03-19T01:25:14.233Z,7.10
2019-03-19T01:27:42.914Z,7.10
2019-03-19T01:30:30.847Z,7.10
2019-03-19T01:32:59.436Z,7.10
2019-03-19T01:35:28.021Z,7.10
2019-03-19T01:38:08.510Z,7.10
2019-03-19T01:40:37.188Z,7.20
2019-03-19T01:43:05.936Z,7.10
2019-03-19T01:45:34.538Z,7.10
2019-03-19T01:48:03.187Z,7.20
2019-03-19T01:50:31.889Z,7.20
2019-03-19T01:53:00.482Z,7.20
2019-03-19T01:55:29.287Z,7.20
2019-03-19T01:57:58.330Z,7.10
2019-03-19T02:00:26.966Z,7.10
2019-03-19T02:02:55.606Z,7.00
2019-03-19T02:05:24.083Z,6.90
2019-03-19T02:07:52.974Z,7.00
2019-03-19T02:10:22.045Z,6.90
2019-03-19T02:12:50.558Z,7.00
2019-03-19T02:15:19.491Z,7.10
2019-03-19T02:17:48.174Z,7.10
2019-03-19T02:20:17.979Z,7.00
2019-03-19T02:22:46.708Z,7.10
2019-03-19T02:25:15.361Z,7.00
2019-03-19T02:27:43.946Z,7.00
2019-03-19T02:30:16.993Z,7.10
2019-03-19T02:32:45.663Z,7.10
2019-03-19T02:35:14.251Z,7.30
2019-03-19T02:37:42.796Z,7.30
2019-03-19T02:40:13.598Z,7.20
2019-03-19T02:42:42.214Z,7.30
2019-03-19T02:45:14.973Z,7.20
2019-03-19T02:47:43.553Z,7.20
2019-03-19T02:50:14.542Z,7.10
2019-03-19T02:52:43.110Z,7.10
2019-03-19T02:55:12.110Z,7.20
2019-03-19T02:57:40.835Z,7.10
2019-03-19T03:00:18.030Z,7.00
2019-03-19T03:02:46.690Z,7.00
2019-03-19T03:05:17.139Z,7.00
2019-03-19T03:07:45.907Z,6.90
2019-03-19T03:10:15.019Z,7.00
2019-03-19T03:12:44.014Z,6.80
2019-03-19T03:15:16.079Z,6.80
2019-03-19T03:17:44.675Z,6.80
2019-03-19T03:20:14.683Z,6.70
2019-03-19T03:22:43.313Z,6.70
2019-03-19T03:25:18.811Z,6.60
2019-03-19T03:27:47.599Z,6.70
2019-03-19T03:30:35.539Z,6.70
2019-03-19T03:33:04.533Z,6.80
2019-03-19T03:35:33.119Z,6.90
2019-03-19T03:38:01.850Z,6.90
2019-03-19T03:40:30.492Z,7.00
2019-03-19T03:42:59.033Z,7.00
2019-03-19T03:45:27.622Z,7.00
2019-03-19T03:47:56.162Z,7.00
2019-03-19T03:50:24.727Z,7.00
2019-03-19T03:52:53.307Z,6.90
2019-03-19T03:55:22.001Z,6.90
2019-03-19T03:57:50.534Z,6.90
2019-03-19T04:00:23.490Z,6.80
2019-03-19T04:02:52.121Z,6.70
2019-03-19T04:05:20.765Z,6.70
2019-03-19T04:07:49.421Z,6.60
2019-03-19T04:10:18.984Z,6.50
2019-03-19T04:12:47.782Z,6.50
2019-03-19T04:15:17.505Z,6.60
2019-03-19T04:17:46.148Z,6.70
2019-03-19T04:20:16.763Z,6.70
2019-03-19T04:22:45.397Z,6.70
2019-03-19T04:25:15.074Z,6.70
2019-03-19T04:27:43.983Z,6.70
2019-03-19T04:30:19.674Z,6.80
2019-03-19T04:32:48.355Z,6.80
2019-03-19T04:35:16.990Z,6.70
2019-03-19T04:38:05.395Z,6.80
2019-03-19T04:40:33.957Z,6.90
2019-03-19T04:43:02.577Z,6.70
2019-03-19T04:45:31.247Z,6.70
2019-03-19T04:47:59.806Z,6.70
2019-03-19T04:50:28.466Z,6.80
2019-03-19T04:52:57.180Z,6.80
2019-03-19T04:55:25.764Z,6.80
2019-03-19T04:57:54.303Z,6.80
2019-03-19T05:00:22.886Z,6.90
2019-03-19T05:02:51.631Z,6.90
2019-03-19T05:05:20.212Z,6.90
2019-03-19T05:07:48.831Z,6.80
2019-03-19T05:10:20.572Z,6.80
2019-03-19T05:12:49.173Z,6.70
2019-03-19T05:15:17.893Z,6.70
2019-03-19T05:17:46.442Z,6.80
2019-03-19T05:20:18.719Z,6.80
2019-03-19T05:22:47.359Z,6.70
2019-03-19T05:25:16.095Z,6.70
2019-03-19T05:27:44.664Z,6.60
2019-03-19T05:30:15.627Z,6.50
2019-03-19T05:32:44.286Z,6.60
2019-03-19T05:35:20.887Z,6.50
2019-03-19T05:37:49.472Z,6.50
2019-03-19T05:40:18.363Z,6.60
2019-03-19T05:43:06.282Z,6.60
2019-03-19T05:45:35.071Z,6.70
2019-03-19T05:48:03.752Z,6.70
2019-03-19T05:50:32.337Z,6.80
2019-03-19T05:53:00.932Z,6.70
2019-03-19T05:55:29.491Z,6.80
2019-03-19T05:57:58.098Z,6.90
2019-03-19T06:00:30.807Z,6.90
2019-03-19T06:02:59.368Z,6.90
2019-03-19T06:05:28.049Z,7.00
2019-03-19T06:07:56.691Z,7.00
2019-03-19T06:10:26.157Z,7.00
2019-03-19T06:12:55.135Z,6.80
2019-03-19T06:15:25.589Z,6.80
2019-03-19T06:17:54.075Z,6.90
2019-03-19T06:20:22.811Z,7.10
2019-03-19T06:22:51.573Z,7.20
2019-03-19T06:25:20.241Z,7.20
2019-03-19T06:27:59.509Z,7.10
2019-03-19T06:30:21.265Z,7.00
2019-03-19T06:32:50.038Z,6.80
2019-03-19T06:35:21.000Z,6.70
2019-03-19T06:37:49.366Z,6.80
2019-03-19T06:40:22.018Z,6.80
2019-03-19T06:42:50.726Z,7.00
2019-03-19T06:45:23.267Z,6.90
2019-03-19T06:47:52.111Z,7.00
2019-03-19T06:50:21.629Z,7.00
2019-03-19T06:52:50.211Z,7.20
2019-03-19T06:55:20.660Z,7.10
2019-03-19T06:57:49.306Z,7.10
2019-03-19T07:00:24.149Z,7.20
2019-03-19T07:02:52.793Z,7.20
2019-03-19T07:05:22.452Z,7.30
2019-03-19T07:07:51.131Z,7.10
2019-03-19T07:10:21.055Z,7.20
2019-03-19T07:12:50.870Z,7.20
2019-03-19T07:15:20.871Z,7.30
2019-03-19T07:17:49.543Z,7.50
2019-03-19T07:20:20.424Z,7.50
2019-03-19T07:22:49.074Z,7.60
2019-03-19T07:25:17.888Z,7.60
2019-03-19T07:27:46.764Z,7.80
2019-03-19T07:30:25.299Z,7.80
2019-03-19T07:32:54.138Z,7.90
2019-03-19T07:35:22.976Z,7.90
2019-03-19T07:37:51.701Z,8.20
2019-03-19T07:40:20.446Z,8.40
2019-03-19T07:42:49.463Z,8.70
2019-03-19T07:45:25.218Z,8.80
2019-03-19T07:47:53.927Z,9.00
2019-03-19T07:50:23.625Z,9.10
2019-03-19T07:52:52.266Z,9.30
2019-03-19T07:55:21.412Z,9.40
2019-03-19T07:57:50.079Z,9.50
2019-03-19T08:00:19.893Z,9.50
2019-03-19T08:02:48.640Z,9.60
2019-03-19T08:05:17.784Z,9.80
2019-03-19T08:07:46.453Z,9.90
2019-03-19T08:10:16.510Z,10.10
2019-03-19T08:12:45.141Z,10.20
2019-03-19T08:15:15.298Z,10.20
2019-03-19T08:17:44.177Z,10.30
2019-03-19T08:20:14.407Z,10.40
2019-03-19T08:22:49.170Z,10.40
2019-03-19T08:25:18.025Z,10.40
2019-03-19T08:27:46.688Z,10.50
2019-03-19T08:30:26.147Z,10.60
2019-03-19T08:32:54.834Z,10.60
2019-03-19T08:35:23.526Z,10.60
2019-03-19T08:37:52.130Z,10.50
2019-03-19T08:40:21.407Z,10.60
2019-03-19T08:42:50.164Z,10.60
2019-03-19T08:45:21.648Z,10.70
2019-03-19T08:47:50.338Z,10.80
2019-03-19T08:50:21.272Z,10.80
2019-03-19T08:52:50.067Z,10.80
2019-03-19T08:55:18.893Z,10.80
2019-03-19T08:57:47.813Z,10.80
2019-03-19T09:00:18.583Z,10.90
2019-03-19T09:02:47.525Z,11.00
2019-03-19T09:05:16.143Z,11.00
2019-03-19T09:07:44.978Z,11.10
2019-03-19T09:10:15.735Z,11.10
2019-03-19T09:13:03.731Z,11.20
2019-03-19T09:15:32.543Z,11.10
2019-03-19T09:18:01.341Z,11.00
2019-03-19T09:20:30.020Z,11.20
2019-03-19T09:22:59.225Z,11.20
2019-03-19T09:25:27.856Z,11.20
2019-03-19T09:27:56.539Z,11.30
2019-03-19T09:30:25.758Z,11.30
2019-03-19T09:32:55.988Z,11.30
2019-03-19T09:35:26.494Z,11.40
2019-03-19T09:37:58.816Z,11.40
2019-03-19T09:40:26.000Z,11.40
2019-03-19T09:42:54.654Z,11.40
2019-03-19T09:45:23.609Z,11.40
2019-03-19T09:47:52.465Z,11.50
2019-03-19T09:50:26.007Z,10.50
2019-03-19T09:52:54.793Z,11.50
2019-03-19T09:55:23.616Z,11.50
2019-03-19T09:57:52.419Z,11.50
2019-03-19T10:00:22.025Z,11.60
2019-03-19T10:02:51.262Z,11.60
2019-03-19T10:05:20.007Z,11.50
2019-03-19T10:07:48.665Z,11.50
2019-03-19T10:10:19.594Z,11.50
2019-03-19T10:12:48.791Z,11.60
2019-03-19T10:15:19.202Z,11.60
2019-03-19T10:17:48.214Z,11.60
2019-03-19T10:20:18.431Z,11.60
2019-03-19T10:22:47.226Z,11.70
2019-03-19T10:25:17.250Z,11.80
2019-03-19T10:27:46.177Z,11.70
2019-03-19T10:30:22.913Z,11.60
2019-03-19T10:32:51.949Z,11.60
2019-03-19T10:35:21.329Z,11.60
2019-03-19T10:37:50.104Z,11.60
2019-03-19T10:40:19.849Z,11.60
2019-03-19T10:42:48.474Z,11.60
2019-03-19T10:45:24.255Z,11.70
2019-03-19T10:47:55.568Z,11.70
2019-03-19T10:50:28.248Z,11.60
2019-03-19T10:52:56.841Z,11.70
2019-03-19T10:55:25.551Z,11.70
2019-03-19T10:57:54.099Z,11.70
2019-03-19T11:00:27.158Z,11.60
2019-03-19T11:02:55.818Z,11.50
2019-03-19T11:05:25.411Z,11.50
2019-03-19T11:07:54.426Z,11.50
2019-03-19T11:10:23.301Z,11.50
2019-03-19T11:12:51.883Z,11.50
2019-03-19T11:15:31.488Z,11.60
2019-03-19T11:18:19.214Z,11.70
2019-03-19T11:20:47.899Z,11.70
2019-03-19T11:23:16.620Z,11.70
2019-03-19T11:25:54.130Z,11.80
2019-03-19T11:28:15.893Z,11.80
2019-03-19T11:30:44.894Z,11.80
2019-03-19T11:33:13.595Z,11.80
2019-03-19T11:35:45.585Z,11.70
2019-03-19T11:38:12.643Z,11.50
2019-03-19T11:40:41.435Z,11.60
2019-03-19T11:43:10.122Z,11.60
2019-03-19T11:45:39.904Z,11.60
2019-03-19T11:48:08.462Z,11.60
2019-03-19T11:50:37.131Z,11.70
2019-03-19T11:53:11.774Z,11.80
2019-03-19T11:55:40.543Z,11.90
2019-03-19T11:58:09.097Z,12.00
2019-03-19T12:00:41.871Z,12.00
2019-03-19T12:03:16.069Z,12.00
2019-03-19T12:05:40.882Z,12.00
2019-03-19T12:08:09.449Z,12.00
2019-03-19T12:10:38.094Z,12.10
2019-03-19T12:13:06.834Z,12.10
2019-03-19T12:15:35.561Z,12.10
2019-03-19T12:18:04.868Z,12.00
2019-03-19T12:20:33.452Z,12.00
2019-03-19T12:23:02.122Z,12.00
2019-03-19T12:25:31.397Z,12.10
2019-03-19T12:28:00.468Z,12.10
2019-03-19T12:30:29.220Z,12.10
2019-03-19T12:32:58.051Z,12.10
2019-03-19T12:35:26.764Z,12.10
2019-03-19T12:37:55.324Z,12.10
2019-03-19T12:40:35.966Z,12.20
2019-03-19T12:42:55.247Z,12.10
2019-03-19T12:45:25.089Z,12.10
2019-03-19T12:47:53.696Z,12.10
2019-03-19T12:50:23.937Z,12.10
2019-03-19T12:52:52.622Z,12.10
2019-03-19T12:55:40.601Z,12.10
2019-03-19T12:58:09.219Z,12.10
2019-03-19T13:00:37.833Z,12.10
2019-03-19T13:03:06.593Z,12.00
2019-03-19T13:05:35.198Z,12.00
2019-03-19T13:08:05.545Z,12.00
2019-03-19T13:10:40.133Z,12.00
2019-03-19T13:13:08.945Z,12.00
2019-03-19T13:15:37.586Z,12.00
2019-03-19T13:18:06.347Z,12.00
2019-03-19T13:20:35.140Z,12.10
2019-03-19T13:23:03.697Z,11.90
2019-03-19T13:25:33.839Z,12.00
2019-03-19T13:28:02.611Z,12.00
2019-03-19T13:30:44.125Z,12.00
2019-03-19T13:33:03.050Z,12.10
2019-03-19T13:35:31.741Z,12.20
2019-03-19T13:38:00.338Z,12.20
2019-03-19T13:40:29.005Z,12.30
2019-03-19T13:42:57.674Z,12.30
2019-03-19T13:45:26.422Z,12.30
2019-03-19T13:47:54.980Z,12.30
2019-03-19T13:50:23.900Z,12.30
2019-03-19T13:52:52.695Z,12.30
2019-03-19T13:55:24.489Z,12.30
2019-03-19T13:57:54.232Z,12.40
2019-03-19T14:00:22.944Z,12.40
2019-03-19T14:02:52.317Z,12.50
2019-03-19T14:05:22.100Z,12.60
2019-03-19T14:07:50.705Z,12.70
2019-03-19T14:10:20.558Z,12.80
2019-03-19T14:12:49.699Z,12.90
2019-03-19T14:15:37.631Z,12.90
2019-03-19T14:18:06.762Z,13.00
2019-03-19T14:20:35.752Z,13.10
2019-03-19T14:23:04.715Z,13.00
2019-03-19T14:25:35.515Z,13.00
2019-03-19T14:28:05.333Z,12.90
2019-03-19T14:30:34.022Z,12.80
2019-03-19T14:33:02.835Z,12.60
2019-03-19T14:35:37.181Z,12.60
2019-03-19T14:38:01.766Z,12.60
2019-03-19T14:40:30.498Z,12.60
2019-03-19T14:43:01.460Z,12.80
2019-03-19T14:45:29.657Z,13.00
2019-03-19T14:47:58.321Z,13.00
2019-03-19T14:50:27.585Z,12.90
2019-03-19T14:52:56.253Z,12.90
2019-03-19T14:55:26.242Z,12.90
2019-03-19T14:57:54.928Z,12.70
2019-03-19T15:00:44.420Z,12.80
2019-03-19T15:03:13.085Z,12.70
2019-03-19T15:05:41.673Z,12.60
2019-03-19T15:08:10.407Z,12.60
2019-03-19T15:10:43.912Z,12.60
2019-03-19T15:13:12.442Z,12.60
2019-03-19T15:15:41.108Z,12.60
2019-03-19T15:18:09.716Z,12.60
2019-03-19T15:20:38.735Z,12.80
2019-03-19T15:23:07.659Z,12.80
2019-03-19T15:25:36.314Z,12.70
2019-03-19T15:28:05.157Z,12.70
2019-03-19T15:30:34.186Z,12.70
2019-03-19T15:33:02.816Z,12.70
2019-03-19T15:35:31.513Z,12.70
2019-03-19T15:38:00.229Z,12.70
2019-03-19T15:40:28.815Z,12.70
2019-03-19T15:42:57.423Z,12.60
2019-03-19T15:45:30.878Z,12.60
2019-03-19T15:47:59.948Z,12.60
2019-03-19T15:50:28.622Z,12.50
2019-03-19T15:52:58.683Z,12.60
2019-03-19T15:55:27.227Z,12.60
2019-03-19T15:57:55.900Z,12.50
2019-03-19T16:00:43.963Z,12.50
2019-03-19T16:03:12.671Z,12.50
2019-03-19T16:05:53.811Z,12.50
2019-03-19T16:08:22.469Z,12.50
2019-03-19T16:10:51.199Z,12.40
2019-03-19T16:13:39.175Z,12.50
2019-03-19T16:16:08.057Z,12.60
2019-03-19T16:18:36.899Z,12.60
2019-03-19T16:21:05.760Z,12.60
2019-03-19T16:23:34.375Z,12.60
2019-03-19T16:26:03.120Z,12.60
2019-03-19T16:28:31.850Z,12.40
2019-03-19T16:31:00.451Z,12.40
2019-03-19T16:33:29.021Z,12.40
2019-03-19T16:35:58.389Z,12.40
2019-03-19T16:38:27.021Z,12.40
2019-03-19T16:40:55.610Z,12.40
2019-03-19T16:43:24.212Z,12.30
2019-03-19T16:45:53.022Z,12.30
2019-03-19T16:48:21.769Z,12.20
2019-03-19T16:50:50.500Z,12.30
2019-03-19T16:53:19.163Z,12.10
2019-03-19T16:55:47.782Z,12.10
2019-03-19T16:58:16.386Z,12.10
2019-03-19T17:00:45.125Z,12.10
2019-03-19T17:03:13.934Z,12.20
2019-03-19T17:05:42.563Z,12.20
2019-03-19T17:08:11.340Z,12.20
2019-03-19T17:10:40.216Z,12.20
2019-03-19T17:13:08.982Z,12.20
2019-03-19T17:15:37.689Z,12.20
2019-03-19T17:18:06.838Z,12.10
2019-03-19T17:20:35.505Z,12.10
2019-03-19T17:23:04.165Z,12.00
2019-03-19T17:25:32.766Z,12.00
2019-03-19T17:28:01.979Z,12.00
2019-03-19T17:30:32.302Z,11.90
2019-03-19T17:33:01.026Z,11.90
2019-03-19T17:35:29.591Z,11.90
2019-03-19T17:37:58.200Z,11.90
2019-03-19T17:40:26.839Z,11.90
2019-03-19T17:42:56.626Z,11.90
2019-03-19T17:45:25.296Z,11.80
2019-03-19T17:47:53.946Z,11.80
2019-03-19T17:50:27.619Z,11.80
2019-03-19T17:52:56.934Z,11.70
2019-03-19T17:55:26.070Z,11.60
2019-03-19T17:57:54.740Z,11.50
2019-03-19T18:00:31.168Z,11.40
2019-03-19T18:02:59.815Z,11.40
2019-03-19T18:05:30.275Z,11.30
2019-03-19T18:07:58.819Z,11.10
2019-03-19T18:10:28.676Z,11.10
2019-03-19T18:12:57.835Z,11.10
2019-03-19T18:15:26.683Z,11.00
2019-03-19T18:17:55.362Z,10.90
2019-03-19T18:20:23.994Z,10.80
2019-03-19T18:22:52.782Z,10.90
2019-03-19T18:25:21.572Z,10.80
2019-03-19T18:27:50.252Z,10.80
2019-03-19T18:30:21.356Z,10.60
2019-03-19T18:32:50.429Z,10.60
2019-03-19T18:35:21.027Z,10.50
2019-03-19T18:37:49.568Z,10.40
2019-03-19T18:40:19.458Z,10.50
2019-03-19T18:42:48.107Z,10.40
2019-03-19T18:45:17.760Z,10.30
2019-03-19T18:47:46.438Z,10.20
2019-03-19T18:50:16.113Z,10.20
2019-03-19T18:52:44.801Z,10.20
2019-03-19T18:55:19.159Z,10.20
2019-03-19T18:57:47.797Z,10.20
2019-03-19T19:00:23.492Z,10.20
2019-03-19T19:02:52.149Z,10.10
2019-03-19T19:05:21.991Z,10.00
2019-03-19T19:07:50.526Z,9.80
2019-03-19T19:10:21.042Z,9.70
2019-03-19T19:12:49.997Z,9.60
2019-03-19T19:15:20.329Z,9.50
2019-03-19T19:17:48.959Z,9.50
2019-03-19T19:20:17.985Z,9.50
2019-03-19T19:22:46.562Z,9.50
2019-03-19T19:25:23.059Z,9.50
2019-03-19T19:27:51.611Z,9.40
2019-03-19T19:30:26.443Z,9.40
2019-03-19T19:33:01.704Z,9.30
2019-03-19T19:35:26.313Z,9.30
2019-03-19T19:37:54.919Z,9.30
2019-03-19T19:40:23.599Z,9.30
2019-03-19T19:42:52.222Z,9.10
2019-03-19T19:45:21.335Z,9.10
2019-03-19T19:47:50.010Z,9.00
2019-03-19T19:50:23.192Z,9.00
2019-03-19T19:52:52.158Z,9.00
2019-03-19T19:55:20.919Z,9.00
2019-03-19T19:57:52.545Z,9.00
2019-03-19T20:00:22.259Z,9.00
2019-03-19T20:02:50.939Z,8.80
2019-03-19T20:05:19.631Z,8.80
2019-03-19T20:07:49.952Z,8.70
2019-03-19T20:10:26.451Z,8.70
2019-03-19T20:12:55.194Z,8.70
2019-03-19T20:15:23.820Z,8.50
2019-03-19T20:17:52.612Z,8.50
2019-03-19T20:20:34.686Z,8.50
2019-03-19T20:23:03.226Z,8.40
2019-03-19T20:25:32.083Z,8.40
2019-03-19T20:28:00.750Z,8.50
2019-03-19T20:30:29.622Z,8.50
2019-03-19T20:32:58.173Z,8.40
2019-03-19T20:35:26.860Z,8.40
2019-03-19T20:37:55.595Z,8.40
2019-03-19T20:40:24.280Z,8.30
2019-03-19T20:42:53.025Z,8.40
2019-03-19T20:45:41.012Z,8.30
2019-03-19T20:48:09.594Z,8.30
2019-03-19T20:50:40.122Z,8.20
2019-03-19T20:53:08.830Z,8.10
2019-03-19T20:55:38.029Z,8.00
2019-03-19T20:58:07.001Z,8.20
2019-03-19T21:00:35.630Z,8.10
2019-03-19T21:03:04.933Z,8.10
2019-03-19T21:05:33.494Z,8.10
2019-03-19T21:08:03.021Z,8.00
2019-03-19T21:10:31.759Z,8.00
2019-03-19T21:13:00.623Z,8.10
2019-03-19T21:18:19.352Z,8.00
2019-03-19T21:20:47.951Z,8.00
2019-03-19T21:23:16.494Z,7.90
2019-03-19T21:25:45.075Z,7.90
2019-03-19T21:28:14.642Z,7.90
2019-03-19T21:30:43.398Z,8.00
2019-03-19T21:33:12.022Z,7.90
2019-03-19T21:35:40.606Z,7.80
2019-03-19T21:38:09.386Z,7.80
2019-03-19T21:40:38.021Z,7.80
2019-03-19T21:43:06.646Z,8.00
2019-03-19T21:45:35.247Z,8.10
2019-03-19T21:48:05.178Z,8.10
2019-03-19T21:50:33.721Z,8.10
2019-03-19T21:53:02.296Z,8.20
2019-03-19T21:55:30.946Z,8.20
2019-03-19T21:57:59.718Z,7.90
2019-03-19T22:00:28.395Z,7.70
2019-03-19T22:02:57.076Z,7.70
2019-03-19T22:05:25.920Z,7.50
2019-03-19T22:07:54.776Z,7.40
2019-03-19T22:10:23.709Z,7.40
2019-03-19T22:13:11.644Z,7.50
2019-03-19T22:15:40.190Z,7.50
2019-03-19T22:18:08.757Z,7.50
2019-03-19T22:20:37.457Z,7.50
2019-03-19T22:23:06.127Z,7.30
2019-03-19T22:25:34.725Z,7.30
2019-03-19T22:28:03.447Z,7.20
2019-03-19T22:30:32.050Z,7.20
2019-03-19T22:33:00.639Z,7.20
2019-03-19T22:35:29.387Z,7.10
2019-03-19T22:37:58.240Z,7.10
2019-03-19T22:40:26.830Z,7.10
2019-03-19T22:42:55.416Z,7.10
2019-03-19T22:45:24.253Z,7.00
2019-03-19T22:47:53.124Z,7.00
2019-03-19T22:50:21.677Z,7.00
2019-03-19T22:52:50.294Z,7.00
2019-03-19T22:55:28.443Z,7.00
2019-03-19T22:57:49.086Z,7.80
2019-03-19T23:00:27.133Z,7.00
2019-03-19T23:02:55.994Z,6.90
2019-03-19T23:05:24.546Z,6.80
2019-03-19T23:07:53.292Z,6.80
2019-03-19T23:10:21.846Z,6.70
2019-03-19T23:12:50.533Z,6.70
2019-03-19T23:15:19.663Z,6.60
2019-03-19T23:17:48.212Z,6.60
2019-03-19T23:20:17.411Z,6.60
2019-03-19T23:22:46.022Z,6.70
2019-03-19T23:25:14.681Z,6.80
2019-03-19T23:27:43.298Z,6.90
2019-03-19T23:30:14.491Z,6.90
2019-03-19T23:32:43.116Z,6.80
2019-03-19T23:35:11.783Z,6.80
2019-03-19T23:37:40.338Z,6.70
2019-03-19T23:40:14.093Z,6.70
2019-03-19T23:42:42.731Z,6.60
2019-03-19T23:45:13.713Z,6.70
2019-03-19T23:47:42.333Z,6.70
2019-03-19T23:50:15.950Z,6.60
2019-03-19T23:52:44.568Z,6.70
2019-03-19T23:55:13.152Z,6.70
2019-03-19T23:57:42.088Z,6.50
